sensor_id;sensor_type;location;lat;lon;timestamp;temperature;humidity
75387;DHT22;63966;47.914;22.266;2023-12-20T00:00:46;-0.85;93.88
75387;DHT22;63966;47.914;22.266;2023-12-20T00:03:51;-0.96;93.91
75387;DHT22;63966;47.914;22.266;2023-12-20T00:06:55;-0.98;94.16
75387;DHT22;63966;47.914;22.266;2023-12-20T00:09:58;-0.98;94.35
75387;DHT22;63966;47.914;22.266;2023-12-20T00:13:02;-0.99;94.35
75387;DHT22;63966;47.914;22.266;2023-12-20T00:16:05;-0.91;94.34
75387;DHT22;63966;47.914;22.266;2023-12-20T00:19:09;-0.77;93.45
75387;DHT22;63966;47.914;22.266;2023-12-20T00:22:12;-0.75;93.30
75387;DHT22;63966;47.914;22.266;2023-12-20T00:25:16;-0.68;92.91
75387;DHT22;63966;47.914;22.266;2023-12-20T00:28:19;-0.54;91.99
75387;DHT22;63966;47.914;22.266;2023-12-20T00:31:23;-0.61;91.79
75387;DHT22;63966;47.914;22.266;2023-12-20T00:34:26;-0.63;91.82
75387;DHT22;63966;47.914;22.266;2023-12-20T00:37:30;-0.58;91.59
75387;DHT22;63966;47.914;22.266;2023-12-20T00:40:33;-0.56;90.96
75387;DHT22;63966;47.914;22.266;2023-12-20T00:43:37;-0.64;91.43
75387;DHT22;63966;47.914;22.266;2023-12-20T00:46:40;-0.78;92.01
75387;DHT22;63966;47.914;22.266;2023-12-20T00:49:44;-0.74;91.76
75387;DHT22;63966;47.914;22.266;2023-12-20T00:52:48;-0.89;92.00
75387;DHT22;63966;47.914;22.266;2023-12-20T00:55:51;-0.94;92.63
75387;DHT22;63966;47.914;22.266;2023-12-20T00:58:55;-1.09;93.51
75387;DHT22;63966;47.914;22.266;2023-12-20T01:01:59;-1.11;94.03
75387;DHT22;63966;47.914;22.266;2023-12-20T01:05:03;-1.29;94.40
75387;DHT22;63966;47.914;22.266;2023-12-20T01:08:07;-1.29;94.64
75387;DHT22;63966;47.914;22.266;2023-12-20T01:11:10;-1.25;94.29
75387;DHT22;63966;47.914;22.266;2023-12-20T01:14:13;-1.35;94.29
75387;DHT22;63966;47.914;22.266;2023-12-20T01:17:17;-1.31;94.35
75387;DHT22;63966;47.914;22.266;2023-12-20T01:20:20;-1.25;93.89
75387;DHT22;63966;47.914;22.266;2023-12-20T01:23:24;-1.31;93.47
75387;DHT22;63966;47.914;22.266;2023-12-20T01:26:27;-1.28;93.41
75387;DHT22;63966;47.914;22.266;2023-12-20T01:29:30;-1.36;93.58
75387;DHT22;63966;47.914;22.266;2023-12-20T01:32:34;-1.33;93.46
75387;DHT22;63966;47.914;22.266;2023-12-20T01:35:37;-1.20;93.35
75387;DHT22;63966;47.914;22.266;2023-12-20T01:38:42;-1.29;93.31
75387;DHT22;63966;47.914;22.266;2023-12-20T01:41:45;-1.19;93.15
75387;DHT22;63966;47.914;22.266;2023-12-20T01:44:49;-1.25;93.29
75387;DHT22;63966;47.914;22.266;2023-12-20T01:47:53;-1.13;93.23
75387;DHT22;63966;47.914;22.266;2023-12-20T01:50:57;-0.89;92.09
75387;DHT22;63966;47.914;22.266;2023-12-20T01:54:01;-0.77;91.00
75387;DHT22;63966;47.914;22.266;2023-12-20T01:57:07;-1.16;91.85
75387;DHT22;63966;47.914;22.266;2023-12-20T02:00:12;-1.08;92.08
75387;DHT22;63966;47.914;22.266;2023-12-20T02:03:16;-1.17;92.13
75387;DHT22;63966;47.914;22.266;2023-12-20T02:06:21;-1.28;92.49
75387;DHT22;63966;47.914;22.266;2023-12-20T02:09:27;-1.25;92.77
75387;DHT22;63966;47.914;22.266;2023-12-20T02:12:30;-1.36;92.86
75387;DHT22;63966;47.914;22.266;2023-12-20T02:15:34;-1.49;92.81
75387;DHT22;63966;47.914;22.266;2023-12-20T02:18:40;-1.46;92.91
75387;DHT22;63966;47.914;22.266;2023-12-20T02:21:45;-1.44;93.24
75387;DHT22;63966;47.914;22.266;2023-12-20T02:24:49;-1.50;93.00
75387;DHT22;63966;47.914;22.266;2023-12-20T02:27:52;-1.59;92.70
75387;DHT22;63966;47.914;22.266;2023-12-20T02:30:56;-1.59;92.77
75387;DHT22;63966;47.914;22.266;2023-12-20T02:34:00;-1.53;92.77
75387;DHT22;63966;47.914;22.266;2023-12-20T02:37:03;-1.56;92.77
75387;DHT22;63966;47.914;22.266;2023-12-20T02:40:07;-1.54;92.88
75387;DHT22;63966;47.914;22.266;2023-12-20T02:43:11;-1.42;93.00
75387;DHT22;63966;47.914;22.266;2023-12-20T02:46:16;-1.42;92.68
75387;DHT22;63966;47.914;22.266;2023-12-20T02:49:21;-1.36;92.87
75387;DHT22;63966;47.914;22.266;2023-12-20T02:52:25;-1.39;92.57
75387;DHT22;63966;47.914;22.266;2023-12-20T02:55:29;-1.35;92.10
75387;DHT22;63966;47.914;22.266;2023-12-20T02:58:32;-1.46;92.57
75387;DHT22;63966;47.914;22.266;2023-12-20T03:01:41;-1.44;93.05
75387;DHT22;63966;47.914;22.266;2023-12-20T03:04:44;-1.35;92.62
75387;DHT22;63966;47.914;22.266;2023-12-20T03:07:48;-1.26;92.07
75387;DHT22;63966;47.914;22.266;2023-12-20T03:10:52;-1.43;91.85
75387;DHT22;63966;47.914;22.266;2023-12-20T03:13:57;-1.47;92.22
75387;DHT22;63966;47.914;22.266;2023-12-20T03:17:00;-1.20;91.65
75387;DHT22;63966;47.914;22.266;2023-12-20T03:20:04;-1.28;91.84
75387;DHT22;63966;47.914;22.266;2023-12-20T03:23:10;-1.38;92.19
75387;DHT22;63966;47.914;22.266;2023-12-20T03:26:14;-1.53;92.05
75387;DHT22;63966;47.914;22.266;2023-12-20T03:29:17;-1.50;90.45
75387;DHT22;63966;47.914;22.266;2023-12-20T03:32:20;-1.60;90.78
75387;DHT22;63966;47.914;22.266;2023-12-20T03:35:24;-1.67;91.81
75387;DHT22;63966;47.914;22.266;2023-12-20T03:38:27;-1.73;92.21
75387;DHT22;63966;47.914;22.266;2023-12-20T03:41:31;-1.74;92.35
75387;DHT22;63966;47.914;22.266;2023-12-20T03:44:34;-1.74;90.96
75387;DHT22;63966;47.914;22.266;2023-12-20T03:47:37;-1.84;89.90
75387;DHT22;63966;47.914;22.266;2023-12-20T03:50:41;-1.84;89.40
75387;DHT22;63966;47.914;22.266;2023-12-20T03:53:45;-2.21;90.15
75387;DHT22;63966;47.914;22.266;2023-12-20T03:56:48;-2.23;90.80
75387;DHT22;63966;47.914;22.266;2023-12-20T03:59:51;-2.38;91.24
75387;DHT22;63966;47.914;22.266;2023-12-20T04:02:55;-2.32;91.11
75387;DHT22;63966;47.914;22.266;2023-12-20T04:05:58;-2.36;91.34
75387;DHT22;63966;47.914;22.266;2023-12-20T04:09:02;-2.16;92.30
75387;DHT22;63966;47.914;22.266;2023-12-20T04:12:06;-2.25;92.71
75387;DHT22;63966;47.914;22.266;2023-12-20T04:15:09;-2.12;92.40
75387;DHT22;63966;47.914;22.266;2023-12-20T04:18:15;-1.98;92.63
75387;DHT22;63966;47.914;22.266;2023-12-20T04:21:18;-1.88;92.73
75387;DHT22;63966;47.914;22.266;2023-12-20T04:24:22;-1.78;92.71
75387;DHT22;63966;47.914;22.266;2023-12-20T04:27:26;-1.54;92.39
75387;DHT22;63966;47.914;22.266;2023-12-20T04:30:30;-1.50;91.75
75387;DHT22;63966;47.914;22.266;2023-12-20T04:33:33;-1.40;91.48
75387;DHT22;63966;47.914;22.266;2023-12-20T04:36:37;-1.38;91.58
75387;DHT22;63966;47.914;22.266;2023-12-20T04:39:41;-1.49;91.76
75387;DHT22;63966;47.914;22.266;2023-12-20T04:42:45;-1.78;92.43
75387;DHT22;63966;47.914;22.266;2023-12-20T04:45:48;-1.90;92.75
75387;DHT22;63966;47.914;22.266;2023-12-20T04:48:52;-1.83;92.44
75387;DHT22;63966;47.914;22.266;2023-12-20T04:51:56;-1.77;92.16
75387;DHT22;63966;47.914;22.266;2023-12-20T04:55:00;-1.80;92.48
75387;DHT22;63966;47.914;22.266;2023-12-20T04:58:03;-1.60;91.95
75387;DHT22;63966;47.914;22.266;2023-12-20T05:01:09;-1.56;91.45
75387;DHT22;63966;47.914;22.266;2023-12-20T05:04:13;-1.70;92.53
75387;DHT22;63966;47.914;22.266;2023-12-20T05:07:16;-1.83;92.91
75387;DHT22;63966;47.914;22.266;2023-12-20T05:10:20;-1.46;91.70
75387;DHT22;63966;47.914;22.266;2023-12-20T05:13:24;-1.68;91.90
75387;DHT22;63966;47.914;22.266;2023-12-20T05:16:40;-1.83;92.56
75387;DHT22;63966;47.914;22.266;2023-12-20T05:19:44;-1.90;92.92
75387;DHT22;63966;47.914;22.266;2023-12-20T05:22:47;-2.02;93.25
75387;DHT22;63966;47.914;22.266;2023-12-20T05:25:51;-1.98;93.73
75387;DHT22;63966;47.914;22.266;2023-12-20T05:28:55;-2.02;93.73
75387;DHT22;63966;47.914;22.266;2023-12-20T05:31:59;-2.13;93.03
75387;DHT22;63966;47.914;22.266;2023-12-20T05:35:03;-2.11;93.26
75387;DHT22;63966;47.914;22.266;2023-12-20T05:38:07;-2.05;92.70
75387;DHT22;63966;47.914;22.266;2023-12-20T05:41:10;-2.12;93.47
75387;DHT22;63966;47.914;22.266;2023-12-20T05:44:14;-2.15;93.10
75387;DHT22;63966;47.914;22.266;2023-12-20T05:47:18;-2.12;93.55
75387;DHT22;63966;47.914;22.266;2023-12-20T05:50:21;-2.06;93.03
75387;DHT22;63966;47.914;22.266;2023-12-20T05:53:25;-1.90;93.17
75387;DHT22;63966;47.914;22.266;2023-12-20T05:56:29;-1.99;93.03
75387;DHT22;63966;47.914;22.266;2023-12-20T05:59:32;-1.99;93.04
75387;DHT22;63966;47.914;22.266;2023-12-20T06:02:36;-1.98;92.70
75387;DHT22;63966;47.914;22.266;2023-12-20T06:05:43;-1.88;92.16
75387;DHT22;63966;47.914;22.266;2023-12-20T06:08:46;-1.80;90.99
75387;DHT22;63966;47.914;22.266;2023-12-20T06:11:50;-1.80;90.37
75387;DHT22;63966;47.914;22.266;2023-12-20T06:14:54;-1.77;90.31
75387;DHT22;63966;47.914;22.266;2023-12-20T06:17:58;-1.85;90.12
75387;DHT22;63966;47.914;22.266;2023-12-20T06:21:02;-1.84;90.55
75387;DHT22;63966;47.914;22.266;2023-12-20T06:24:05;-1.74;90.92
75387;DHT22;63966;47.914;22.266;2023-12-20T06:27:09;-1.40;90.25
75387;DHT22;63966;47.914;22.266;2023-12-20T06:30:12;-1.16;90.22
75387;DHT22;63966;47.914;22.266;2023-12-20T06:33:16;-1.13;90.37
75387;DHT22;63966;47.914;22.266;2023-12-20T06:36:21;-1.38;90.76
75387;DHT22;63966;47.914;22.266;2023-12-20T06:39:25;-1.46;90.33
75387;DHT22;63966;47.914;22.266;2023-12-20T06:42:28;-1.36;89.21
75387;DHT22;63966;47.914;22.266;2023-12-20T06:45:35;-1.20;88.78
75387;DHT22;63966;47.914;22.266;2023-12-20T06:48:38;-1.25;87.92
75387;DHT22;63966;47.914;22.266;2023-12-20T06:51:42;-1.04;89.48
75387;DHT22;63966;47.914;22.266;2023-12-20T06:54:46;-1.28;89.62
75387;DHT22;63966;47.914;22.266;2023-12-20T06:57:50;-1.77;90.01
75387;DHT22;63966;47.914;22.266;2023-12-20T07:00:53;-1.38;91.02
75387;DHT22;63966;47.914;22.266;2023-12-20T07:03:57;-1.15;89.63
75387;DHT22;63966;47.914;22.266;2023-12-20T07:07:01;-1.47;90.29
75387;DHT22;63966;47.914;22.266;2023-12-20T07:10:05;-1.17;90.79
75387;DHT22;63966;47.914;22.266;2023-12-20T07:13:11;0.05;87.07
75387;DHT22;63966;47.914;22.266;2023-12-20T07:16:17;2.13;78.66
75387;DHT22;63966;47.914;22.266;2023-12-20T07:19:21;2.32;76.72
75387;DHT22;63966;47.914;22.266;2023-12-20T07:22:25;2.45;77.42
75387;DHT22;63966;47.914;22.266;2023-12-20T07:25:30;2.18;77.88
75387;DHT22;63966;47.914;22.266;2023-12-20T07:28:36;1.66;80.79
75387;DHT22;63966;47.914;22.266;2023-12-20T07:31:40;1.56;80.88
75387;DHT22;63966;47.914;22.266;2023-12-20T07:34:44;1.40;82.12
75387;DHT22;63966;47.914;22.266;2023-12-20T07:37:49;1.36;82.83
75387;DHT22;63966;47.914;22.266;2023-12-20T07:40:52;1.05;84.62
75387;DHT22;63966;47.914;22.266;2023-12-20T07:43:56;1.15;84.71
75387;DHT22;63966;47.914;22.266;2023-12-20T07:46:59;1.01;85.00
75387;DHT22;63966;47.914;22.266;2023-12-20T07:50:04;0.66;86.39
75387;DHT22;63966;47.914;22.266;2023-12-20T07:53:08;0.70;86.27
75387;DHT22;63966;47.914;22.266;2023-12-20T07:56:19;0.60;87.56
75387;DHT22;63966;47.914;22.266;2023-12-20T07:59:23;0.69;86.84
75387;DHT22;63966;47.914;22.266;2023-12-20T08:02:35;0.70;87.57
75387;DHT22;63966;47.914;22.266;2023-12-20T08:05:39;0.73;87.40
75387;DHT22;63966;47.914;22.266;2023-12-20T08:08:45;0.63;88.11
75387;DHT22;63966;47.914;22.266;2023-12-20T08:11:57;0.76;87.48
75387;DHT22;63966;47.914;22.266;2023-12-20T08:15:03;0.90;87.14
75387;DHT22;63966;47.914;22.266;2023-12-20T08:18:08;1.05;87.01
75387;DHT22;63966;47.914;22.266;2023-12-20T08:21:12;1.11;86.34
75387;DHT22;63966;47.914;22.266;2023-12-20T08:24:16;1.11;87.60
75387;DHT22;63966;47.914;22.266;2023-12-20T08:27:21;1.31;87.60
75387;DHT22;63966;47.914;22.266;2023-12-20T08:30:25;1.42;86.54
75387;DHT22;63966;47.914;22.266;2023-12-20T08:33:28;1.49;85.36
75387;DHT22;63966;47.914;22.266;2023-12-20T08:36:37;1.50;86.39
75387;DHT22;63966;47.914;22.266;2023-12-20T08:39:40;1.63;85.43
75387;DHT22;63966;47.914;22.266;2023-12-20T08:42:48;1.80;85.07
75387;DHT22;63966;47.914;22.266;2023-12-20T08:45:52;2.03;84.44
75387;DHT22;63966;47.914;22.266;2023-12-20T08:48:56;2.07;84.64
75387;DHT22;63966;47.914;22.266;2023-12-20T08:52:00;2.50;82.90
75387;DHT22;63966;47.914;22.266;2023-12-20T08:55:04;2.36;84.07
75387;DHT22;63966;47.914;22.266;2023-12-20T08:58:08;2.49;83.26
75387;DHT22;63966;47.914;22.266;2023-12-20T09:01:12;2.54;83.20
75387;DHT22;63966;47.914;22.266;2023-12-20T09:04:16;2.57;83.05
75387;DHT22;63966;47.914;22.266;2023-12-20T09:07:25;2.54;83.15
75387;DHT22;63966;47.914;22.266;2023-12-20T09:10:30;2.56;83.35
75387;DHT22;63966;47.914;22.266;2023-12-20T09:13:34;2.67;83.09
75387;DHT22;63966;47.914;22.266;2023-12-20T09:16:38;2.59;83.03
75387;DHT22;63966;47.914;22.266;2023-12-20T09:19:42;2.63;82.99
75387;DHT22;63966;47.914;22.266;2023-12-20T09:22:47;2.86;83.38
75387;DHT22;63966;47.914;22.266;2023-12-20T09:25:50;3.07;82.77
75387;DHT22;63966;47.914;22.266;2023-12-20T09:28:58;2.97;83.08
75387;DHT22;63966;47.914;22.266;2023-12-20T09:32:04;2.91;83.38
75387;DHT22;63966;47.914;22.266;2023-12-20T09:35:08;2.97;83.57
75387;DHT22;63966;47.914;22.266;2023-12-20T09:38:12;2.89;83.71
75387;DHT22;63966;47.914;22.266;2023-12-20T09:41:17;2.89;83.97
75387;DHT22;63966;47.914;22.266;2023-12-20T09:44:21;3.05;82.80
75387;DHT22;63966;47.914;22.266;2023-12-20T09:47:26;3.39;82.34
75387;DHT22;63966;47.914;22.266;2023-12-20T09:50:31;3.32;80.97
75387;DHT22;63966;47.914;22.266;2023-12-20T09:53:37;3.34;80.97
75387;DHT22;63966;47.914;22.266;2023-12-20T09:56:41;3.45;80.50
75387;DHT22;63966;47.914;22.266;2023-12-20T09:59:47;3.68;80.04
75387;DHT22;63966;47.914;22.266;2023-12-20T10:03:11;3.55;81.08
75387;DHT22;63966;47.914;22.266;2023-12-20T10:06:19;3.66;81.80
75387;DHT22;63966;47.914;22.266;2023-12-20T10:09:23;3.79;81.32
75387;DHT22;63966;47.914;22.266;2023-12-20T10:12:27;3.73;81.51
75387;DHT22;63966;47.914;22.266;2023-12-20T10:15:34;3.80;81.05
75387;DHT22;63966;47.914;22.266;2023-12-20T10:18:38;3.89;81.13
75387;DHT22;63966;47.914;22.266;2023-12-20T10:21:42;4.06;80.46
75387;DHT22;63966;47.914;22.266;2023-12-20T10:24:49;4.07;80.48
75387;DHT22;63966;47.914;22.266;2023-12-20T10:28:12;4.01;80.68
75387;DHT22;63966;47.914;22.266;2023-12-20T10:31:46;4.27;79.20
75387;DHT22;63966;47.914;22.266;2023-12-20T10:34:53;4.01;80.27
75387;DHT22;63966;47.914;22.266;2023-12-20T10:37:58;3.87;80.83
75387;DHT22;63966;47.914;22.266;2023-12-20T10:41:06;3.89;81.18
75387;DHT22;63966;47.914;22.266;2023-12-20T10:44:12;3.94;81.31
75387;DHT22;63966;47.914;22.266;2023-12-20T10:47:16;4.00;80.72
75387;DHT22;63966;47.914;22.266;2023-12-20T10:50:20;4.13;80.81
75387;DHT22;63966;47.914;22.266;2023-12-20T10:53:25;4.38;80.04
75387;DHT22;63966;47.914;22.266;2023-12-20T10:56:32;4.62;79.21
75387;DHT22;63966;47.914;22.266;2023-12-20T10:59:37;4.82;77.90
75387;DHT22;63966;47.914;22.266;2023-12-20T11:02:41;4.65;80.01
75387;DHT22;63966;47.914;22.266;2023-12-20T11:09:42;4.65;79.48
75387;DHT22;63966;47.914;22.266;2023-12-20T11:13:05;4.61;79.95
75387;DHT22;63966;47.914;22.266;2023-12-20T11:16:15;4.82;79.14
75387;DHT22;63966;47.914;22.266;2023-12-20T11:19:19;4.97;78.46
75387;DHT22;63966;47.914;22.266;2023-12-20T11:22:26;5.04;78.26
75387;DHT22;63966;47.914;22.266;2023-12-20T11:28:50;5.23;78.04
75387;DHT22;63966;47.914;22.266;2023-12-20T11:31:55;5.35;78.06
75387;DHT22;63966;47.914;22.266;2023-12-20T11:35:00;5.42;77.59
75387;DHT22;63966;47.914;22.266;2023-12-20T11:38:07;5.52;77.14
75387;DHT22;63966;47.914;22.266;2023-12-20T11:41:11;5.61;77.21
75387;DHT22;63966;47.914;22.266;2023-12-20T11:44:18;5.63;77.14
75387;DHT22;63966;47.914;22.266;2023-12-20T11:47:21;5.63;76.72
75387;DHT22;63966;47.914;22.266;2023-12-20T11:50:25;5.69;76.67
75387;DHT22;63966;47.914;22.266;2023-12-20T11:53:30;5.71;77.27
75387;DHT22;63966;47.914;22.266;2023-12-20T11:56:37;5.78;76.55
75387;DHT22;63966;47.914;22.266;2023-12-20T11:59:40;5.76;77.08
75387;DHT22;63966;47.914;22.266;2023-12-20T12:02:54;5.83;76.89
75387;DHT22;63966;47.914;22.266;2023-12-20T12:05:58;5.90;76.49
75387;DHT22;63966;47.914;22.266;2023-12-20T12:09:02;5.89;76.47
75387;DHT22;63966;47.914;22.266;2023-12-20T12:12:08;5.86;76.76
75387;DHT22;63966;47.914;22.266;2023-12-20T12:15:15;5.89;76.85
75387;DHT22;63966;47.914;22.266;2023-12-20T12:18:19;5.98;76.66
75387;DHT22;63966;47.914;22.266;2023-12-20T12:21:23;6.11;76.52
75387;DHT22;63966;47.914;22.266;2023-12-20T12:24:35;6.19;77.30
75387;DHT22;63966;47.914;22.266;2023-12-20T12:27:40;6.38;76.54
75387;DHT22;63966;47.914;22.266;2023-12-20T12:30:57;6.51;75.74
75387;DHT22;63966;47.914;22.266;2023-12-20T12:34:01;6.64;75.87
75387;DHT22;63966;47.914;22.266;2023-12-20T12:37:06;6.47;75.58
75387;DHT22;63966;47.914;22.266;2023-12-20T12:40:11;6.57;75.93
75387;DHT22;63966;47.914;22.266;2023-12-20T12:43:15;6.65;75.37
75387;DHT22;63966;47.914;22.266;2023-12-20T12:46:18;6.45;76.16
75387;DHT22;63966;47.914;22.266;2023-12-20T12:49:22;6.29;76.82
75387;DHT22;63966;47.914;22.266;2023-12-20T12:52:26;6.29;76.94
75387;DHT22;63966;47.914;22.266;2023-12-20T12:55:30;6.21;77.44
75387;DHT22;63966;47.914;22.266;2023-12-20T12:58:34;6.14;77.54
75387;DHT22;63966;47.914;22.266;2023-12-20T13:01:37;5.93;77.98
75387;DHT22;63966;47.914;22.266;2023-12-20T13:04:43;6.03;78.29
75387;DHT22;63966;47.914;22.266;2023-12-20T13:07:46;6.02;78.11
75387;DHT22;63966;47.914;22.266;2023-12-20T13:10:51;6.11;77.88
75387;DHT22;63966;47.914;22.266;2023-12-20T13:13:55;6.11;77.55
75387;DHT22;63966;47.914;22.266;2023-12-20T13:16:58;6.17;77.32
75387;DHT22;63966;47.914;22.266;2023-12-20T13:20:02;5.98;78.11
75387;DHT22;63966;47.914;22.266;2023-12-20T13:23:06;5.99;78.10
75387;DHT22;63966;47.914;22.266;2023-12-20T13:26:10;6.05;77.91
75387;DHT22;63966;47.914;22.266;2023-12-20T13:29:13;6.07;77.87
75387;DHT22;63966;47.914;22.266;2023-12-20T13:32:17;5.95;77.99
75387;DHT22;63966;47.914;22.266;2023-12-20T13:35:23;5.89;78.41
75387;DHT22;63966;47.914;22.266;2023-12-20T13:38:27;6.00;78.18
75387;DHT22;63966;47.914;22.266;2023-12-20T13:41:31;5.89;78.67
75387;DHT22;63966;47.914;22.266;2023-12-20T13:44:35;5.69;79.08
75387;DHT22;63966;47.914;22.266;2023-12-20T13:47:38;5.68;79.30
75387;DHT22;63966;47.914;22.266;2023-12-20T13:50:42;5.62;79.75
75387;DHT22;63966;47.914;22.266;2023-12-20T13:53:45;5.58;79.85
75387;DHT22;63966;47.914;22.266;2023-12-20T13:56:49;5.63;79.77
75387;DHT22;63966;47.914;22.266;2023-12-20T14:00:11;5.59;80.07
75387;DHT22;63966;47.914;22.266;2023-12-20T14:03:18;5.48;80.47
75387;DHT22;63966;47.914;22.266;2023-12-20T14:06:23;4.51;80.52
75387;DHT22;63966;47.914;22.266;2023-12-20T14:09:27;3.63;84.19
75387;DHT22;63966;47.914;22.266;2023-12-20T14:12:30;3.08;85.40
75387;DHT22;63966;47.914;22.266;2023-12-20T14:15:35;2.49;86.63
75387;DHT22;63966;47.914;22.266;2023-12-20T14:18:41;1.84;88.59
75387;DHT22;63966;47.914;22.266;2023-12-20T14:21:44;1.26;90.79
75387;DHT22;63966;47.914;22.266;2023-12-20T14:24:48;0.91;92.67
75387;DHT22;63966;47.914;22.266;2023-12-20T14:27:52;0.60;94.34
75387;DHT22;63966;47.914;22.266;2023-12-20T14:30:55;0.50;95.00
75387;DHT22;63966;47.914;22.266;2023-12-20T14:34:00;0.52;95.07
75387;DHT22;63966;47.914;22.266;2023-12-20T14:37:07;0.56;95.15
75387;DHT22;63966;47.914;22.266;2023-12-20T14:40:11;0.53;95.63
75387;DHT22;63966;47.914;22.266;2023-12-20T14:43:19;0.38;95.99
75387;DHT22;63966;47.914;22.266;2023-12-20T14:46:22;0.45;96.25
75387;DHT22;63966;47.914;22.266;2023-12-20T14:49:26;0.35;96.76
75387;DHT22;63966;47.914;22.266;2023-12-20T14:52:30;0.49;96.88
75387;DHT22;63966;47.914;22.266;2023-12-20T14:55:34;0.60;96.79
75387;DHT22;63966;47.914;22.266;2023-12-20T14:58:38;0.56;96.69
75387;DHT22;63966;47.914;22.266;2023-12-20T15:01:43;0.69;96.82
75387;DHT22;63966;47.914;22.266;2023-12-20T15:04:47;0.56;97.21
75387;DHT22;63966;47.914;22.266;2023-12-20T15:07:50;0.63;97.21
75387;DHT22;63966;47.914;22.266;2023-12-20T15:10:54;0.59;97.43
75387;DHT22;63966;47.914;22.266;2023-12-20T15:13:57;0.69;97.27
75387;DHT22;63966;47.914;22.266;2023-12-20T15:17:03;0.78;96.90
75387;DHT22;63966;47.914;22.266;2023-12-20T15:20:08;0.85;96.75
75387;DHT22;63966;47.914;22.266;2023-12-20T15:23:15;0.81;96.53
75387;DHT22;63966;47.914;22.266;2023-12-20T15:26:20;0.91;96.12
75387;DHT22;63966;47.914;22.266;2023-12-20T15:29:23;0.84;96.09
75387;DHT22;63966;47.914;22.266;2023-12-20T15:32:27;0.88;96.35
75387;DHT22;63966;47.914;22.266;2023-12-20T15:35:31;0.94;96.18
75387;DHT22;63966;47.914;22.266;2023-12-20T15:38:37;1.02;95.65
75387;DHT22;63966;47.914;22.266;2023-12-20T15:41:41;0.87;95.74
75387;DHT22;63966;47.914;22.266;2023-12-20T15:44:45;0.94;95.72
75387;DHT22;63966;47.914;22.266;2023-12-20T15:47:48;1.04;95.42
75387;DHT22;63966;47.914;22.266;2023-12-20T15:50:52;1.28;94.51
75387;DHT22;63966;47.914;22.266;2023-12-20T15:53:56;1.22;94.33
75387;DHT22;63966;47.914;22.266;2023-12-20T15:57:00;1.08;94.15
75387;DHT22;63966;47.914;22.266;2023-12-20T16:00:04;1.08;94.71
75387;DHT22;63966;47.914;22.266;2023-12-20T16:03:11;1.07;94.75
75387;DHT22;63966;47.914;22.266;2023-12-20T16:06:27;1.01;94.87
75387;DHT22;63966;47.914;22.266;2023-12-20T16:09:31;1.08;94.69
75387;DHT22;63966;47.914;22.266;2023-12-20T16:12:34;0.97;94.80
75387;DHT22;63966;47.914;22.266;2023-12-20T16:15:38;0.87;94.99
75387;DHT22;63966;47.914;22.266;2023-12-20T16:18:42;0.77;95.40
75387;DHT22;63966;47.914;22.266;2023-12-20T16:21:45;0.66;95.42
75387;DHT22;63966;47.914;22.266;2023-12-20T16:24:49;0.52;95.50
75387;DHT22;63966;47.914;22.266;2023-12-20T16:27:52;0.38;95.68
75387;DHT22;63966;47.914;22.266;2023-12-20T16:30:56;0.43;95.68
75387;DHT22;63966;47.914;22.266;2023-12-20T16:34:00;0.43;95.97
75387;DHT22;63966;47.914;22.266;2023-12-20T16:37:09;0.30;96.06
75387;DHT22;63966;47.914;22.266;2023-12-20T16:40:13;0.49;95.64
75387;DHT22;63966;47.914;22.266;2023-12-20T16:43:16;0.35;95.53
75387;DHT22;63966;47.914;22.266;2023-12-20T16:46:20;0.32;95.94
75387;DHT22;63966;47.914;22.266;2023-12-20T16:49:24;0.21;95.73
75387;DHT22;63966;47.914;22.266;2023-12-20T16:52:28;0.08;96.29
75387;DHT22;63966;47.914;22.266;2023-12-20T16:55:31;0.03;96.56
75387;DHT22;63966;47.914;22.266;2023-12-20T16:58:36;0.15;96.85
75387;DHT22;63966;47.914;22.266;2023-12-20T17:01:40;0.23;96.22
75387;DHT22;63966;47.914;22.266;2023-12-20T17:04:47;0.16;96.19
75387;DHT22;63966;47.914;22.266;2023-12-20T17:07:52;0.21;96.22
75387;DHT22;63966;47.914;22.266;2023-12-20T17:10:55;0.22;96.44
75387;DHT22;63966;47.914;22.266;2023-12-20T17:13:59;0.08;96.55
75387;DHT22;63966;47.914;22.266;2023-12-20T17:17:03;0.19;96.54
75387;DHT22;63966;47.914;22.266;2023-12-20T17:20:08;0.08;96.28
75387;DHT22;63966;47.914;22.266;2023-12-20T17:23:12;0.06;96.88
75387;DHT22;63966;47.914;22.266;2023-12-20T17:26:15;-0.09;96.98
75387;DHT22;63966;47.914;22.266;2023-12-20T17:29:18;-0.05;97.19
75387;DHT22;63966;47.914;22.266;2023-12-20T17:32:22;0.08;96.47
75387;DHT22;63966;47.914;22.266;2023-12-20T17:35:25;0.03;96.54
75387;DHT22;63966;47.914;22.266;2023-12-20T17:38:29;0.08;96.86
75387;DHT22;63966;47.914;22.266;2023-12-20T17:41:33;0.16;96.84
75387;DHT22;63966;47.914;22.266;2023-12-20T17:44:38;0.36;96.60
75387;DHT22;63966;47.914;22.266;2023-12-20T17:47:42;0.21;96.10
75387;DHT22;63966;47.914;22.266;2023-12-20T17:50:49;0.32;95.87
75387;DHT22;63966;47.914;22.266;2023-12-20T17:53:53;0.45;95.22
75387;DHT22;63966;47.914;22.266;2023-12-20T17:56:56;0.53;95.10
75387;DHT22;63966;47.914;22.266;2023-12-20T18:00:12;0.54;94.96
75387;DHT22;63966;47.914;22.266;2023-12-20T18:03:17;0.48;94.93
75387;DHT22;63966;47.914;22.266;2023-12-20T18:06:21;0.43;94.94
75387;DHT22;63966;47.914;22.266;2023-12-20T18:09:26;0.42;95.16
75387;DHT22;63966;47.914;22.266;2023-12-20T18:12:29;0.36;95.47
75387;DHT22;63966;47.914;22.266;2023-12-20T18:15:33;0.28;95.63
75387;DHT22;63966;47.914;22.266;2023-12-20T18:18:37;0.35;95.66
75387;DHT22;63966;47.914;22.266;2023-12-20T18:21:41;0.33;95.73
75387;DHT22;63966;47.914;22.266;2023-12-20T18:24:44;0.18;95.67
75387;DHT22;63966;47.914;22.266;2023-12-20T18:27:49;0.16;96.47
75387;DHT22;63966;47.914;22.266;2023-12-20T18:30:52;0.25;96.38
75387;DHT22;63966;47.914;22.266;2023-12-20T18:33:56;0.19;96.32
75387;DHT22;63966;47.914;22.266;2023-12-20T18:37:00;0.23;95.96
75387;DHT22;63966;47.914;22.266;2023-12-20T18:40:04;0.22;95.71
75387;DHT22;63966;47.914;22.266;2023-12-20T18:43:09;0.19;95.54
75387;DHT22;63966;47.914;22.266;2023-12-20T18:46:12;0.08;95.73
75387;DHT22;63966;47.914;22.266;2023-12-20T18:49:16;0.06;96.40
75387;DHT22;63966;47.914;22.266;2023-12-20T18:52:20;0.13;96.12
75387;DHT22;63966;47.914;22.266;2023-12-20T18:55:26;0.12;96.14
75387;DHT22;63966;47.914;22.266;2023-12-20T18:58:30;0.13;96.36
75387;DHT22;63966;47.914;22.266;2023-12-20T19:01:34;0.15;96.35
75387;DHT22;63966;47.914;22.266;2023-12-20T19:04:38;0.30;96.30
75387;DHT22;63966;47.914;22.266;2023-12-20T19:07:42;0.15;96.43
75387;DHT22;63966;47.914;22.266;2023-12-20T19:10:46;0.02;96.62
75387;DHT22;63966;47.914;22.266;2023-12-20T19:13:50;0.08;96.51
75387;DHT22;63966;47.914;22.266;2023-12-20T19:16:53;0.06;96.34
75387;DHT22;63966;47.914;22.266;2023-12-20T19:19:57;0.09;96.35
75387;DHT22;63966;47.914;22.266;2023-12-20T19:23:00;0.18;96.05
75387;DHT22;63966;47.914;22.266;2023-12-20T19:26:04;0.09;96.06